Time;durP1;ratioP1;P1;durP2;ratioP2;P2;SDS_P1;SDS_P2;PMS_P1;PMS_P2;Temp;Humidity;BMP_temperature;BMP_pressure;BME280_temperature;BME280_humidity;BME280_pressure;Samples;Min_cycle;Max_cycle;Signal;HPM_P1;HPM_P2
2021/06/25 00:02:19;;;;;;;3.57;3.27;;;16.10;99.90;;;;;;5049418;28;21239;-83
2021/06/25 00:04:46;;;;;;;4.63;3.47;;;16.10;99.90;;;;;;5049644;28;20626;-82
2021/06/25 00:07:15;;;;;;;3.90;3.20;;;16.00;99.90;;;;;;5050133;28;20642;-83
2021/06/25 00:09:42;;;;;;;4.27;3.80;;;16.00;99.90;;;;;;5049712;28;20607;-83
2021/06/25 00:12:10;;;;;;;3.27;3.07;;;16.20;99.90;;;;;;5049096;28;20619;-83
2021/06/25 00:14:38;;;;;;;3.80;3.50;;;16.10;99.90;;;;;;5048957;28;20664;-82
2021/06/25 00:17:05;;;;;;;3.37;3.10;;;16.00;99.90;;;;;;5049514;28;21179;-83
2021/06/25 00:19:32;;;;;;;3.53;3.23;;;16.10;99.90;;;;;;5053558;28;20687;-83
2021/06/25 00:21:59;;;;;;;3.83;3.53;;;16.10;99.90;;;;;;5053489;28;20602;-83
2021/06/25 00:24:27;;;;;;;3.63;3.33;;;16.20;99.90;;;;;;5053000;28;20606;-83
2021/06/25 00:26:55;;;;;;;5.23;4.23;;;16.20;99.90;;;;;;5053370;28;20730;-84
2021/06/25 00:29:22;;;;;;;3.70;3.30;;;16.10;99.90;;;;;;5057170;28;20668;-83
2021/06/25 00:31:49;;;;;;;3.20;3.00;;;16.10;99.90;;;;;;5073446;28;20621;-84
2021/06/25 00:34:17;;;;;;;2.67;2.47;;;16.10;99.90;;;;;;5072916;28;20618;-82
2021/06/25 00:36:44;;;;;;;3.20;2.97;;;16.10;99.90;;;;;;5073032;28;21142;-83
2021/06/25 00:39:11;;;;;;;4.80;2.90;;;16.10;99.90;;;;;;5073178;28;20613;-83
2021/06/25 00:41:39;;;;;;;3.10;2.77;;;16.00;99.90;;;;;;5072859;28;20665;-83
2021/06/25 00:44:13;;;;;;;3.23;2.97;;;16.10;99.90;;;;;;5072908;28;21286;-82
2021/06/25 00:46:40;;;;;;;2.90;2.70;;;16.00;99.90;;;;;;5072454;28;20620;-82
2021/06/25 00:49:07;;;;;;;2.70;2.23;;;15.90;99.90;;;;;;5073085;28;20610;-82
2021/06/25 00:51:34;;;;;;;2.47;2.07;;;16.00;99.90;;;;;;5073044;28;20666;-82
2021/06/25 00:54:01;;;;;;;2.47;2.27;;;15.90;99.90;;;;;;5072530;28;20601;-82
2021/06/25 00:56:28;;;;;;;2.50;2.30;;;15.90;99.90;;;;;;5072086;28;20633;-83
2021/06/25 00:58:56;;;;;;;2.60;2.40;;;15.90;99.90;;;;;;5073179;28;20663;-82
2021/06/25 01:01:23;;;;;;;3.30;2.00;;;16.00;99.90;;;;;;5072798;28;20655;-82
2021/06/25 01:03:51;;;;;;;2.87;2.67;;;15.90;99.90;;;;;;5072219;28;20660;-82
2021/06/25 01:06:19;;;;;;;2.77;2.57;;;15.90;99.90;;;;;;5072105;28;20622;-82
2021/06/25 01:08:47;;;;;;;2.17;1.97;;;15.80;99.90;;;;;;5072009;28;20656;-82
2021/06/25 01:11:16;;;;;;;1.77;1.67;;;15.80;99.90;;;;;;5072161;28;20643;-82
2021/06/25 01:13:46;;;;;;;1.80;1.70;;;15.80;99.90;;;;;;5061772;28;20633;-82
2021/06/25 01:16:16;;;;;;;1.80;1.70;;;15.80;99.90;;;;;;5057419;28;20632;-82
2021/06/25 01:18:46;;;;;;;1.93;1.83;;;15.80;99.90;;;;;;5059940;28;20642;-82
2021/06/25 01:21:16;;;;;;;2.43;2.27;;;15.80;99.90;;;;;;5067861;28;21206;-82
2021/06/25 01:23:44;;;;;;;2.23;2.03;;;15.80;99.90;;;;;;5052292;28;20649;-82
2021/06/25 01:26:12;;;;;;;1.70;1.60;;;15.90;99.90;;;;;;5061615;28;20686;-82
2021/06/25 01:28:40;;;;;;;1.63;1.53;;;15.90;99.90;;;;;;5072359;28;20660;-83
2021/06/25 01:31:09;;;;;;;1.93;1.57;;;15.90;99.90;;;;;;5072113;28;20621;-82
2021/06/25 01:33:37;;;;;;;2.00;1.77;;;15.80;99.90;;;;;;5071517;28;20667;-82
2021/06/25 01:36:06;;;;;;;1.27;1.17;;;15.80;99.90;;;;;;5051478;28;20618;-82
2021/06/25 01:38:37;;;;;;;1.00;1.00;;;15.80;99.90;;;;;;5052199;28;20676;-82
2021/06/25 01:41:05;;;;;;;1.73;1.63;;;15.80;99.90;;;;;;5052170;28;20630;-82
2021/06/25 01:43:34;;;;;;;1.60;1.50;;;15.90;99.90;;;;;;5052099;28;20646;-82
2021/06/25 01:46:03;;;;;;;1.80;1.70;;;15.80;99.90;;;;;;5051580;28;20642;-82
2021/06/25 01:48:30;;;;;;;1.77;1.50;;;15.80;99.90;;;;;;5051592;28;20718;-82
2021/06/25 01:50:58;;;;;;;1.23;1.10;;;15.70;99.90;;;;;;5054823;28;20687;-82
2021/06/25 01:53:26;;;;;;;1.93;1.40;;;15.70;99.90;;;;;;5071725;28;20618;-82
2021/06/25 01:55:57;;;;;;;1.40;1.30;;;15.70;99.90;;;;;;5071130;28;20606;-82
2021/06/25 01:58:28;;;;;;;1.63;1.53;;;15.70;99.90;;;;;;5071420;28;20614;-82
2021/06/25 02:01:05;;;;;;;1.30;1.30;;;15.70;99.90;;;;;;5071241;28;20948;-82
2021/06/25 02:03:33;;;;;;;1.60;1.50;;;15.70;99.90;;;;;;5071362;28;20656;-82
2021/06/25 02:06:00;;;;;;;1.87;1.77;;;15.70;99.90;;;;;;5071220;28;20646;-82
2021/06/25 02:08:28;;;;;;;1.90;1.77;;;15.70;99.90;;;;;;5071421;28;21268;-82
2021/06/25 02:10:59;;;;;;;1.60;1.50;;;15.70;99.90;;;;;;5070792;28;20622;-82
2021/06/25 02:13:29;;;;;;;2.00;1.90;;;15.70;99.90;;;;;;5070985;28;20630;-82
2021/06/25 02:15:59;;;;;;;1.83;1.73;;;15.70;99.90;;;;;;5070924;28;20651;-82
2021/06/25 02:18:30;;;;;;;2.10;2.00;;;15.70;99.90;;;;;;5071377;28;20625;-82
2021/06/25 02:21:01;;;;;;;2.00;1.90;;;15.80;99.90;;;;;;5071321;28;20721;-81
2021/06/25 02:23:29;;;;;;;2.63;2.27;;;15.80;99.90;;;;;;5070953;28;21223;-82
2021/06/25 02:26:00;;;;;;;1.90;1.80;;;15.90;99.90;;;;;;5060192;28;20680;-82
2021/06/25 02:28:28;;;;;;;2.93;2.47;;;15.90;99.90;;;;;;5051587;28;20626;-82
2021/06/25 02:30:58;;;;;;;2.30;2.17;;;15.80;99.90;;;;;;5051616;28;20734;-82
2021/06/25 02:33:26;;;;;;;2.30;2.10;;;15.90;99.90;;;;;;5050927;28;21189;-82
2021/06/25 02:35:54;;;;;;;4.07;2.43;;;15.80;99.90;;;;;;5050407;28;21072;-82
2021/06/25 02:38:20;;;;;;;2.73;2.30;;;15.90;99.90;;;;;;5050534;28;20618;-81
2021/06/25 02:40:48;;;;;;;4.73;2.70;;;15.80;99.90;;;;;;5050166;28;20644;-81
2021/06/25 02:43:16;;;;;;;2.70;2.50;;;15.80;99.90;;;;;;5050877;28;20664;-81
2021/06/25 02:45:43;;;;;;;2.93;2.73;;;15.80;99.90;;;;;;5050362;28;20749;-82
2021/06/25 02:48:10;;;;;;;3.50;2.70;;;15.80;99.90;;;;;;5050531;28;20610;-82
2021/06/25 02:50:37;;;;;;;2.70;2.50;;;15.90;99.90;;;;;;5050674;28;20603;-82
2021/06/25 02:53:04;;;;;;;2.70;2.50;;;15.80;99.90;;;;;;5050838;28;20672;-82
2021/06/25 02:55:31;;;;;;;3.17;2.97;;;15.90;99.90;;;;;;5050008;28;20621;-82
2021/06/25 02:57:58;;;;;;;2.30;2.20;;;15.90;99.90;;;;;;5050826;28;20620;-82
2021/06/25 03:00:26;;;;;;;5.50;3.60;;;15.80;99.90;;;;;;5050773;28;21168;-82
2021/06/25 03:02:53;;;;;;;3.13;2.70;;;15.80;99.90;;;;;;5050648;28;20765;-80
2021/06/25 03:05:22;;;;;;;2.80;2.60;;;15.70;99.90;;;;;;5049613;28;20614;-81
2021/06/25 03:07:49;;;;;;;3.20;2.90;;;15.70;99.90;;;;;;5050581;28;20614;-81
2021/06/25 03:10:16;;;;;;;3.20;2.90;;;15.80;99.90;;;;;;5049615;28;20646;-81
2021/06/25 03:12:44;;;;;;;2.57;2.37;;;15.70;99.90;;;;;;5050390;28;20619;-81
2021/06/25 03:15:12;;;;;;;2.60;2.40;;;15.80;99.90;;;;;;5049909;28;20646;-82
2021/06/25 03:17:40;;;;;;;3.63;2.97;;;15.60;99.90;;;;;;5050225;28;20611;-81
2021/06/25 03:20:08;;;;;;;3.93;3.63;;;15.70;99.90;;;;;;5049686;28;20965;-81
2021/06/25 03:22:36;;;;;;;4.30;2.73;;;15.90;99.90;;;;;;5050404;28;21017;-81
2021/06/25 03:25:04;;;;;;;2.90;2.60;;;15.80;99.90;;;;;;5051837;28;20638;-81
2021/06/25 03:27:31;;;;;;;3.83;3.53;;;15.90;99.90;;;;;;5070042;28;20993;-81
2021/06/25 03:29:58;;;;;;;3.80;2.90;;;15.90;99.90;;;;;;5070225;28;20683;-81
2021/06/25 03:32:25;;;;;;;2.57;2.37;;;15.90;99.90;;;;;;5069855;28;20651;-81
2021/06/25 03:34:53;;;;;;;2.13;2.03;;;15.90;99.90;;;;;;5069630;28;21078;-82
2021/06/25 03:37:21;;;;;;;2.60;2.43;;;15.90;99.90;;;;;;5070217;28;20613;-81
2021/06/25 03:39:48;;;;;;;2.47;2.33;;;15.80;99.90;;;;;;5070112;28;20609;-81
2021/06/25 03:42:15;;;;;;;2.80;2.60;;;15.70;99.90;;;;;;5070687;28;20652;-81
2021/06/25 03:44:42;;;;;;;2.57;2.37;;;15.70;99.90;;;;;;5069668;28;21006;-81
2021/06/25 03:47:09;;;;;;;2.57;2.20;;;15.80;99.90;;;;;;5069870;28;20675;-81
2021/06/25 03:49:36;;;;;;;2.37;2.17;;;15.70;99.90;;;;;;5070170;28;21020;-81
2021/06/25 03:52:04;;;;;;;2.57;2.37;;;15.70;99.90;;;;;;5070132;28;20659;-81
2021/06/25 03:54:31;;;;;;;3.60;2.70;;;15.70;99.90;;;;;;5073365;28;20668;-81
2021/06/25 03:56:58;;;;;;;2.60;2.40;;;15.80;99.90;;;;;;5074103;28;20985;-81
2021/06/25 03:59:25;;;;;;;2.70;2.50;;;15.80;99.90;;;;;;5073994;28;21276;-81
2021/06/25 04:01:53;;;;;;;3.10;2.80;;;15.90;99.90;;;;;;5073750;28;20605;-81
2021/06/25 04:04:20;;;;;;;3.10;2.90;;;15.90;99.90;;;;;;5073278;28;20657;-81
2021/06/25 04:06:47;;;;;;;2.40;2.30;;;15.90;99.90;;;;;;5073880;28;20607;-81
2021/06/25 04:09:15;;;;;;;2.97;2.77;;;15.90;99.90;;;;;;5073910;28;20670;-81
2021/06/25 04:11:43;;;;;;;2.67;2.47;;;15.90;99.90;;;;;;5073112;28;20613;-81
2021/06/25 04:14:10;;;;;;;4.00;2.00;;;15.90;99.90;;;;;;5073449;28;20636;-81
2021/06/25 04:16:37;;;;;;;2.23;2.13;;;15.80;99.90;;;;;;5073194;28;20616;-81
2021/06/25 04:19:04;;;;;;;2.60;2.40;;;15.80;99.90;;;;;;5073860;28;21087;-81
2021/06/25 04:21:31;;;;;;;3.20;2.30;;;15.70;99.90;;;;;;5073824;28;20617;-81
2021/06/25 04:23:57;;;;;;;2.27;1.93;;;15.70;99.90;;;;;;5073352;28;20680;-82
2021/06/25 04:26:26;;;;;;;1.70;1.60;;;15.70;99.90;;;;;;5059051;28;20626;-80
2021/06/25 04:28:53;;;;;;;2.50;2.30;;;15.70;99.90;;;;;;5052922;28;20607;-81
2021/06/25 04:31:19;;;;;;;1.93;1.83;;;15.70;99.90;;;;;;5053760;28;20630;-81
2021/06/25 04:33:46;;;;;;;1.73;1.63;;;15.80;99.90;;;;;;5053295;28;20655;-81
2021/06/25 04:36:13;;;;;;;2.50;1.87;;;15.70;99.90;;;;;;5052417;28;20633;-81
2021/06/25 04:38:40;;;;;;;1.93;1.83;;;15.70;99.90;;;;;;5053126;28;20713;-81
2021/06/25 04:41:07;;;;;;;2.50;1.63;;;15.80;99.90;;;;;;5053252;28;21483;-81
2021/06/25 04:43:35;;;;;;;2.37;2.17;;;15.90;99.90;;;;;;5052546;28;21068;-81
2021/06/25 04:46:02;;;;;;;2.10;1.90;;;15.90;99.90;;;;;;5052604;28;20672;-81
2021/06/25 04:48:29;;;;;;;3.53;2.20;;;15.90;99.90;;;;;;5052818;28;20684;-81
2021/06/25 04:50:56;;;;;;;1.70;1.60;;;15.90;99.90;;;;;;5052997;28;20610;-81
2021/06/25 04:53:24;;;;;;;2.20;2.10;;;15.90;99.90;;;;;;5052967;28;20614;-81
2021/06/25 04:55:51;;;;;;;2.90;2.70;;;15.80;99.90;;;;;;5052748;28;21143;-81
2021/06/25 04:58:18;;;;;;;2.50;2.30;;;15.90;99.90;;;;;;5053376;28;20672;-81
2021/06/25 05:00:47;;;;;;;4.20;2.33;;;15.90;99.90;;;;;;5053156;28;20629;-81
2021/06/25 05:03:14;;;;;;;2.87;2.43;;;15.90;99.90;;;;;;5052074;28;20607;-81
2021/06/25 05:05:42;;;;;;;4.67;2.87;;;15.80;99.90;;;;;;5050821;28;20622;-81
2021/06/25 05:08:09;;;;;;;3.33;2.50;;;15.90;99.90;;;;;;5051212;28;20962;-81
2021/06/25 05:10:37;;;;;;;3.23;2.40;;;15.90;99.90;;;;;;5050875;28;21218;-81
2021/06/25 05:13:04;;;;;;;4.10;2.90;;;15.90;99.90;;;;;;5052460;28;20614;-81
2021/06/25 05:15:32;;;;;;;2.30;2.10;;;16.00;99.90;;;;;;5052202;28;20692;-80
2021/06/25 05:18:11;;;;;;;2.30;2.10;;;16.10;99.90;;;;;;5051792;28;20661;-81
2021/06/25 05:20:38;;;;;;;2.30;2.10;;;16.10;99.90;;;;;;5052130;28;21167;-80
2021/06/25 05:23:05;;;;;;;2.67;2.47;;;16.00;99.90;;;;;;5051956;28;20663;-81
2021/06/25 05:25:32;;;;;;;2.03;1.73;;;16.00;99.90;;;;;;5057962;28;20688;-80
2021/06/25 05:27:59;;;;;;;2.40;2.20;;;15.90;99.90;;;;;;5072311;28;20625;-81
2021/06/25 05:30:26;;;;;;;3.20;2.50;;;16.00;99.90;;;;;;5072276;28;21183;-80
2021/06/25 05:32:53;;;;;;;2.20;2.00;;;16.00;99.90;;;;;;5072346;28;20996;-80
2021/06/25 05:35:21;;;;;;;3.07;1.73;;;16.20;99.90;;;;;;5071566;28;20618;-80
2021/06/25 05:37:48;;;;;;;2.10;1.57;;;16.20;99.90;;;;;;5072001;28;20729;-80
2021/06/25 05:40:15;;;;;;;2.10;2.00;;;16.10;99.90;;;;;;5072066;28;20704;-80
2021/06/25 05:42:42;;;;;;;4.13;1.80;;;16.20;99.90;;;;;;5072065;28;20726;-81
2021/06/25 05:45:10;;;;;;;1.97;1.80;;;16.00;99.90;;;;;;5071081;28;20714;-80
2021/06/25 05:47:37;;;;;;;1.80;1.70;;;16.10;99.90;;;;;;5071986;28;20718;-80
2021/06/25 05:50:04;;;;;;;2.30;1.53;;;16.10;99.90;;;;;;5071270;28;20657;-80
2021/06/25 05:52:33;;;;;;;1.50;1.40;;;16.10;99.90;;;;;;5071865;28;20664;-80
2021/06/25 05:55:00;;;;;;;1.50;1.40;;;16.20;99.90;;;;;;5070844;28;20597;-80
2021/06/25 05:57:26;;;;;;;1.30;1.20;;;16.10;99.90;;;;;;5071700;28;20678;-81
2021/06/25 05:59:53;;;;;;;1.30;1.20;;;16.10;99.90;;;;;;5071512;28;20625;-80
2021/06/25 06:02:20;;;;;;;2.13;1.37;;;16.10;99.90;;;;;;5071539;28;20629;-80
2021/06/25 06:04:47;;;;;;;1.67;1.30;;;16.10;99.90;;;;;;5070245;28;21000;-80
2021/06/25 06:07:14;;;;;;;1.07;1.03;;;16.40;99.90;;;;;;5071840;28;20605;-80
2021/06/25 06:09:42;;;;;;;1.10;1.10;;;16.50;99.90;;;;;;5071843;28;20625;-80
2021/06/25 06:12:10;;;;;;;1.13;1.13;;;16.40;99.90;;;;;;5071276;28;20607;-82
2021/06/25 06:14:37;;;;;;;0.80;0.80;;;16.30;99.90;;;;;;5071219;28;20683;-81
2021/06/25 06:17:05;;;;;;;1.60;1.50;;;16.10;99.90;;;;;;5070555;28;20675;-82
2021/06/25 06:19:38;;;;;;;1.37;1.27;;;16.00;99.90;;;;;;5071411;28;20623;-81
2021/06/25 06:33:13;;;;;;;1.40;1.30;;;16.10;99.90;;;;;;5040225;28;20689;-81
2021/06/25 06:35:40;;;;;;;1.63;1.30;;;16.10;99.90;;;;;;5050624;28;20626;-81
2021/06/25 06:38:07;;;;;;;2.10;2.00;;;16.10;99.90;;;;;;5050530;28;20626;-81
2021/06/25 06:40:36;;;;;;;2.53;2.30;;;16.10;99.90;;;;;;5050871;28;20684;-80
2021/06/25 06:43:04;;;;;;;1.63;1.53;;;16.20;99.90;;;;;;5050914;28;21206;-80
2021/06/25 06:45:30;;;;;;;2.30;1.83;;;16.30;99.90;;;;;;5050131;28;20752;-80
2021/06/25 06:47:57;;;;;;;1.83;1.73;;;16.30;99.90;;;;;;5051006;28;20618;-81
2021/06/25 06:50:24;;;;;;;2.03;1.70;;;16.30;99.90;;;;;;5050763;28;20624;-81
2021/06/25 06:52:51;;;;;;;1.90;1.80;;;16.30;99.90;;;;;;5050623;28;20685;-81
2021/06/25 06:55:20;;;;;;;1.87;1.77;;;16.30;99.90;;;;;;5050186;28;20607;-80
2021/06/25 06:57:49;;;;;;;6.00;2.60;;;16.10;99.90;;;;;;5050644;28;20722;-80
2021/06/25 07:00:17;;;;;;;3.93;2.53;;;16.10;99.90;;;;;;5050323;28;20623;-80
2021/06/25 07:02:45;;;;;;;3.23;1.70;;;16.20;99.90;;;;;;5050377;28;20618;-81
2021/06/25 07:05:14;;;;;;;2.20;2.00;;;16.20;99.90;;;;;;5049369;28;21295;-82
2021/06/25 07:07:41;;;;;;;3.40;2.53;;;16.20;99.90;;;;;;5050393;28;20681;-82
2021/06/25 07:10:10;;;;;;;1.80;1.70;;;16.10;99.90;;;;;;5050104;28;20622;-81
2021/06/25 07:12:39;;;;;;;1.97;1.87;;;16.10;99.90;;;;;;5050531;28;20970;-82
2021/06/25 07:15:08;;;;;;;1.97;1.60;;;16.00;99.90;;;;;;5049680;28;20717;-82
2021/06/25 07:17:35;;;;;;;2.20;2.00;;;16.00;99.90;;;;;;5049820;28;20619;-81
2021/06/25 07:20:03;;;;;;;2.83;1.87;;;16.00;99.90;;;;;;5050141;28;20610;-82
2021/06/25 07:22:30;;;;;;;1.77;1.63;;;16.00;99.90;;;;;;5050459;28;20623;-82
2021/06/25 07:24:57;;;;;;;1.80;1.70;;;16.00;99.90;;;;;;5051370;28;21035;-82
2021/06/25 07:27:24;;;;;;;3.13;1.97;;;16.00;99.90;;;;;;5070538;28;20618;-82
2021/06/25 07:29:51;;;;;;;1.93;1.83;;;16.00;99.90;;;;;;5070383;28;21214;-83
2021/06/25 07:32:19;;;;;;;6.57;6.00;;;16.00;99.90;;;;;;5069800;28;20623;-82
2021/06/25 07:34:46;;;;;;;2.60;2.40;;;16.00;99.90;;;;;;5070041;28;20621;-82
2021/06/25 07:37:13;;;;;;;2.20;2.00;;;16.10;99.90;;;;;;5070380;28;20688;-82
2021/06/25 07:39:40;;;;;;;2.00;1.90;;;16.20;99.90;;;;;;5069917;28;20606;-82
2021/06/25 07:42:08;;;;;;;1.87;1.77;;;16.30;99.90;;;;;;5070216;28;20613;-82
2021/06/25 07:44:35;;;;;;;2.70;2.50;;;16.30;99.90;;;;;;5069296;28;20796;-82
2021/06/25 07:47:02;;;;;;;3.10;2.73;;;16.40;99.90;;;;;;5070194;28;20626;-82
2021/06/25 07:49:31;;;;;;;2.57;2.37;;;16.40;99.90;;;;;;5070129;28;20723;-82
2021/06/25 07:51:58;;;;;;;2.90;2.53;;;16.50;99.90;;;;;;5069997;28;20648;-82
2021/06/25 07:54:25;;;;;;;3.10;2.90;;;16.40;99.90;;;;;;5069869;28;20622;-82
2021/06/25 07:56:52;;;;;;;3.37;3.07;;;16.50;99.90;;;;;;5070088;28;20626;-82
2021/06/25 07:59:19;;;;;;;3.23;2.93;;;16.60;99.90;;;;;;5069460;28;20646;-82
2021/06/25 08:01:46;;;;;;;3.70;3.17;;;16.70;99.90;;;;;;5069773;28;20624;-82
2021/06/25 08:04:13;;;;;;;3.57;3.30;;;16.70;99.90;;;;;;5070201;28;20608;-82
2021/06/25 08:06:41;;;;;;;4.30;3.90;;;16.80;99.90;;;;;;5069782;28;20663;-82
2021/06/25 08:09:08;;;;;;;4.30;4.00;;;16.70;99.90;;;;;;5069775;28;21162;-82
2021/06/25 08:11:36;;;;;;;5.00;4.20;;;16.90;99.90;;;;;;5068385;28;20616;-82
2021/06/25 08:14:06;;;;;;;4.07;3.77;;;16.90;99.90;;;;;;5069684;28;21170;-82
2021/06/25 08:16:33;;;;;;;5.27;3.90;;;16.90;99.90;;;;;;5069549;28;21015;-82
2021/06/25 08:19:01;;;;;;;4.57;4.17;;;16.90;99.90;;;;;;5069626;28;20625;-82
2021/06/25 08:21:29;;;;;;;6.73;3.97;;;16.90;99.90;;;;;;5069465;28;20731;-81
2021/06/25 08:23:58;;;;;;;3.57;3.27;;;17.00;99.90;;;;;;5069658;28;20597;-82
2021/06/25 08:26:28;;;;;;;4.60;4.10;;;17.00;99.90;;;;;;5054979;28;20705;-82
2021/06/25 08:28:55;;;;;;;3.73;3.43;;;17.00;99.90;;;;;;5053110;28;20715;-82
2021/06/25 08:31:23;;;;;;;4.40;3.97;;;17.20;99.90;;;;;;5061100;28;20622;-82
2021/06/25 08:33:50;;;;;;;3.67;3.37;;;17.20;99.90;;;;;;5059603;28;20652;-82
2021/06/25 08:36:28;;;;;;;3.87;3.57;;;17.30;99.90;;;;;;5062956;28;20682;-83
2021/06/25 08:39:00;;;;;;;4.70;3.37;;;17.30;99.90;;;;;;5060291;28;21053;-81
2021/06/25 08:41:27;;;;;;;3.10;2.90;;;17.50;99.90;;;;;;5060817;28;20628;-81
2021/06/25 08:43:54;;;;;;;3.67;3.33;;;17.50;99.90;;;;;;5063783;28;20618;-82
2021/06/25 08:46:22;;;;;;;3.10;2.90;;;17.30;99.90;;;;;;5068465;28;20654;-81
2021/06/25 08:48:50;;;;;;;3.87;3.57;;;17.30;99.90;;;;;;5065165;28;20670;-81
2021/06/25 08:51:17;;;;;;;3.87;3.47;;;17.20;99.90;;;;;;5068303;28;20623;-81
2021/06/25 08:53:44;;;;;;;3.70;3.40;;;17.20;99.90;;;;;;5056729;28;20628;-81
2021/06/25 08:56:13;;;;;;;3.70;3.40;;;17.10;99.90;;;;;;5068062;28;20643;-81
2021/06/25 08:58:40;;;;;;;3.40;3.10;;;17.10;99.90;;;;;;5056404;28;20619;-81
2021/06/25 09:01:07;;;;;;;2.93;2.70;;;17.20;99.90;;;;;;5067273;28;20671;-81
2021/06/25 09:03:34;;;;;;;3.10;2.80;;;17.10;99.90;;;;;;5062706;28;20618;-82
2021/06/25 09:06:09;;;;;;;2.80;2.60;;;17.00;99.90;;;;;;5058998;28;20711;-81
2021/06/25 09:08:37;;;;;;;2.80;2.60;;;17.20;99.90;;;;;;5069368;28;21010;-82
2021/06/25 09:11:23;;;;;;;2.67;2.47;;;17.20;99.90;;;;;;5058502;28;20626;-82
2021/06/25 09:13:57;;;;;;;2.27;2.07;;;17.30;99.90;;;;;;5061065;28;20972;-82
2021/06/25 09:16:26;;;;;;;3.07;2.80;;;17.30;99.90;;;;;;5062308;28;20680;-82
2021/06/25 09:19:01;;;;;;;3.07;2.77;;;17.30;99.90;;;;;;5063344;28;20618;-82
2021/06/25 09:21:30;;;;;;;3.93;3.63;;;17.20;99.90;;;;;;5054189;28;21173;-82
2021/06/25 09:23:57;;;;;;;3.80;3.50;;;17.20;99.90;;;;;;5066854;28;20649;-83
2021/06/25 09:26:32;;;;;;;4.97;4.20;;;17.20;99.90;;;;;;5051512;28;20717;-83
2021/06/25 09:29:12;;;;;;;4.10;3.70;;;17.20;99.90;;;;;;5058345;28;21038;-82
2021/06/25 09:31:39;;;;;;;5.60;3.93;;;17.00;99.90;;;;;;5067268;28;20647;-81
2021/06/25 09:34:07;;;;;;;4.50;4.13;;;17.10;99.90;;;;;;5053927;28;20674;-81
2021/06/25 09:36:38;;;;;;;5.17;4.77;;;17.00;99.90;;;;;;5063291;28;20621;-81
2021/06/25 09:39:07;;;;;;;4.53;4.13;;;17.00;99.90;;;;;;5064615;28;21191;-81
2021/06/25 09:41:37;;;;;;;4.33;3.93;;;17.10;99.90;;;;;;5059993;28;20741;-82
2021/06/25 09:44:06;;;;;;;4.50;4.10;;;17.30;99.90;;;;;;5067842;28;20616;-81
2021/06/25 09:46:34;;;;;;;4.90;4.27;;;17.20;99.90;;;;;;5053955;28;20759;-81
2021/06/25 09:49:04;;;;;;;5.27;4.87;;;17.20;99.90;;;;;;5054263;28;20623;-82
2021/06/25 09:51:31;;;;;;;5.40;4.93;;;17.20;99.90;;;;;;5060474;28;20624;-82
2021/06/25 09:54:11;;;;;;;6.20;5.60;;;17.10;99.90;;;;;;5061660;28;20664;-82
2021/06/25 09:56:44;;;;;;;5.70;5.20;;;17.10;99.90;;;;;;5066696;28;20675;-81
2021/06/25 09:59:32;;;;;;;4.87;4.47;;;17.30;99.90;;;;;;5053416;28;20728;-81
2021/06/25 10:01:58;;;;;;;5.23;4.73;;;17.40;99.90;;;;;;5052076;28;20616;-82
2021/06/25 10:04:35;;;;;;;6.33;4.93;;;17.30;99.90;;;;;;5051465;28;20651;-81
2021/06/25 10:07:15;;;;;;;5.67;5.20;;;17.40;99.90;;;;;;5052055;28;21177;-81
2021/06/25 10:09:44;;;;;;;5.67;5.17;;;17.60;99.90;;;;;;5051961;28;20675;-81
2021/06/25 10:12:15;;;;;;;5.50;4.80;;;17.50;99.90;;;;;;5051589;28;20737;-81
2021/06/25 10:14:43;;;;;;;5.93;5.43;;;17.40;99.90;;;;;;5050958;28;20622;-81
2021/06/25 10:17:11;;;;;;;6.10;5.50;;;17.30;99.90;;;;;;5051830;28;20616;-81
2021/06/25 10:19:39;;;;;;;5.70;5.20;;;17.20;99.90;;;;;;5051901;28;20601;-81
2021/06/25 10:22:08;;;;;;;5.47;4.93;;;17.20;99.90;;;;;;5051798;28;20664;-81
2021/06/25 10:24:35;;;;;;;5.67;5.13;;;17.10;99.90;;;;;;5051319;28;20626;-82
2021/06/25 10:27:04;;;;;;;7.53;5.17;;;17.20;99.90;;;;;;5069859;28;20667;-82
2021/06/25 10:29:34;;;;;;;5.30;4.90;;;17.10;99.90;;;;;;5070736;28;21495;-81
2021/06/25 10:32:02;;;;;;;5.57;5.07;;;17.10;99.90;;;;;;5071678;28;20672;-81
2021/06/25 10:34:32;;;;;;;6.10;5.50;;;17.10;99.90;;;;;;5071208;28;21045;-81
2021/06/25 10:36:59;;;;;;;6.40;5.80;;;17.00;99.90;;;;;;5071279;28;20705;-81
2021/06/25 10:39:26;;;;;;;6.30;5.80;;;17.20;99.90;;;;;;5071175;28;21044;-81
2021/06/25 10:41:55;;;;;;;6.40;5.80;;;17.10;99.90;;;;;;5070733;28;20654;-81
2021/06/25 10:44:43;;;;;;;6.47;5.77;;;17.20;99.90;;;;;;5071013;28;20616;-81
2021/06/25 10:47:23;;;;;;;5.80;5.30;;;17.30;99.90;;;;;;5071081;28;20668;-82
2021/06/25 10:50:28;;;;;;;6.70;5.73;;;17.30;99.90;;;;;;5070981;28;20678;-81
2021/06/25 10:53:13;;;;;;;6.60;6.00;;;17.50;99.90;;;;;;5071212;28;20672;-81
2021/06/25 10:55:50;;;;;;;6.63;5.70;;;17.40;99.90;;;;;;5070676;28;20632;-81
2021/06/25 10:58:24;;;;;;;5.60;5.10;;;17.60;99.90;;;;;;5070875;28;20670;-81
2021/06/25 11:01:00;;;;;;;5.77;5.33;;;17.80;99.90;;;;;;5071126;28;20625;-81
2021/06/25 11:03:41;;;;;;;6.90;6.20;;;17.90;99.90;;;;;;5070720;28;20620;-81
2021/06/25 11:06:10;;;;;;;8.13;6.80;;;17.90;99.90;;;;;;5070526;28;21242;-82
2021/06/25 11:09:00;;;;;;;6.67;6.07;;;18.10;99.90;;;;;;5070780;28;20620;-82
2021/06/25 11:11:28;;;;;;;6.17;5.67;;;18.00;99.90;;;;;;5070385;28;21162;-82
2021/06/25 11:13:55;;;;;;;7.00;6.27;;;18.10;99.90;;;;;;5070924;28;20652;-82
2021/06/25 11:16:24;;;;;;;7.57;6.90;;;18.30;99.90;;;;;;5070253;28;21009;-82
2021/06/25 11:18:51;;;;;;;7.90;6.57;;;18.30;99.90;;;;;;5071150;28;20625;-82
2021/06/25 11:21:18;;;;;;;7.87;7.07;;;18.30;99.90;;;;;;5070125;28;20682;-82
2021/06/25 11:23:46;;;;;;;8.23;7.40;;;18.20;99.90;;;;;;5070489;28;20690;-82
2021/06/25 11:26:24;;;;;;;7.67;6.97;;;18.10;99.90;;;;;;5058193;28;21069;-82
2021/06/25 11:28:52;;;;;;;8.10;7.30;;;18.00;99.90;;;;;;5050968;28;20614;-82
2021/06/25 11:31:26;;;;;;;10.03;8.93;;;18.10;99.90;;;;;;5050529;28;20679;-83
2021/06/25 11:33:58;;;;;;;9.60;8.60;;;18.10;99.90;;;;;;5050009;28;20680;-83
2021/06/25 11:36:37;;;;;;;9.87;8.57;;;18.00;99.90;;;;;;5050001;28;21206;-83
2021/06/25 11:39:26;;;;;;;9.97;8.87;;;18.00;99.90;;;;;;5050416;28;20603;-83
2021/06/25 11:41:56;;;;;;;9.90;8.90;;;18.10;99.90;;;;;;5050293;28;20638;-83
2021/06/25 11:44:26;;;;;;;9.77;8.70;;;18.10;99.90;;;;;;5049741;28;20614;-83
2021/06/25 11:46:58;;;;;;;9.70;8.73;;;18.20;99.90;;;;;;5050119;28;20711;-82
2021/06/25 11:49:28;;;;;;;9.23;8.33;;;18.20;99.90;;;;;;5050709;28;20726;-83
2021/06/25 11:51:55;;;;;;;9.63;8.40;;;18.20;99.90;;;;;;5050285;28;20704;-82
2021/06/25 11:54:23;;;;;;;8.17;7.20;;;18.50;99.90;;;;;;5049907;28;20645;-83
2021/06/25 11:56:52;;;;;;;9.13;8.23;;;18.50;99.90;;;;;;5049322;28;20621;-83
2021/06/25 11:59:19;;;;;;;8.70;6.93;;;18.50;99.90;;;;;;5050184;28;21195;-83
2021/06/25 12:01:58;;;;;;;8.53;7.77;;;18.70;99.90;;;;;;5050095;28;21166;-83
2021/06/25 12:04:46;;;;;;;7.43;6.63;;;18.80;99.90;;;;;;5049990;28;21019;-83
2021/06/25 12:07:15;;;;;;;7.50;6.80;;;18.90;99.90;;;;;;5044393;28;20732;-83
2021/06/25 12:09:48;;;;;;;8.33;7.53;;;18.80;99.90;;;;;;5050178;28;20629;-83
2021/06/25 12:12:27;;;;;;;7.37;6.70;;;18.80;99.90;;;;;;5049884;28;20622;-83
2021/06/25 12:14:57;;;;;;;7.00;6.30;;;18.90;99.90;;;;;;5052437;28;20985;-83
2021/06/25 12:17:39;;;;;;;6.57;6.00;;;19.20;99.90;;;;;;5053761;28;20668;-83
2021/06/25 12:20:08;;;;;;;7.13;5.83;;;19.30;99.90;;;;;;5054081;28;20610;-83
2021/06/25 12:22:51;;;;;;;7.03;6.20;;;19.50;99.90;;;;;;5053868;28;20666;-84
2021/06/25 12:25:31;;;;;;;5.80;5.13;;;19.90;99.90;;;;;;5057823;28;20700;-84
2021/06/25 12:27:59;;;;;;;6.83;5.07;;;19.90;99.90;;;;;;5073300;28;20626;-83
2021/06/25 12:30:26;;;;;;;4.83;4.43;;;20.20;99.90;;;;;;5073721;28;20628;-83
2021/06/25 12:33:03;;;;;;;4.93;4.53;;;20.70;99.90;;;;;;5073677;28;20615;-84
2021/06/25 12:35:31;;;;;;;4.80;4.40;;;21.20;99.90;;;;;;5073297;28;20674;-84
2021/06/25 12:37:58;;;;;;;7.77;4.37;;;21.50;99.70;;;;;;5073465;28;20653;-84
2021/06/25 12:40:53;;;;;;;4.10;3.80;;;21.20;99.90;;;;;;5073042;28;20636;-83
2021/06/25 12:43:23;;;;;;;4.77;4.37;;;20.80;99.90;;;;;;5073684;28;20974;-83
2021/06/25 12:45:52;;;;;;;4.37;3.97;;;20.20;99.30;;;;;;5073228;28;20616;-83
2021/06/25 12:48:24;;;;;;;4.20;3.90;;;19.80;99.90;;;;;;5073314;28;21046;-83
2021/06/25 12:50:57;;;;;;;4.60;4.20;;;19.70;99.90;;;;;;5072808;28;20623;-83
2021/06/25 12:53:28;;;;;;;4.47;4.07;;;19.80;99.90;;;;;;5072784;28;20623;-83
2021/06/25 12:55:55;;;;;;;5.30;4.80;;;19.80;99.90;;;;;;5071411;28;20624;-84
2021/06/25 12:58:23;;;;;;;4.37;4.07;;;20.10;99.90;;;;;;5073115;28;20614;-84
2021/06/25 13:00:57;;;;;;;5.30;4.80;;;20.30;99.90;;;;;;5072856;28;20624;-84
2021/06/25 13:03:26;;;;;;;4.23;3.93;;;20.40;99.90;;;;;;5072462;28;21065;-84
2021/06/25 13:05:54;;;;;;;4.87;4.47;;;20.40;99.90;;;;;;5072205;28;20635;-83
2021/06/25 13:08:26;;;;;;;5.93;5.43;;;20.70;99.90;;;;;;5072309;28;21167;-83
2021/06/25 13:10:55;;;;;;;6.60;5.90;;;20.70;99.90;;;;;;5071757;28;20626;-84